sensor_id;sensor_type;location;lat;lon;timestamp;P1;durP1;ratioP1;P2;durP2;ratioP2
13941;SDS011;7043;51.630;7.254;2023-04-23T00:00:49;49.10;;;37.73;;
13941;SDS011;7043;51.630;7.254;2023-04-23T00:03:16;48.93;;;37.60;;
13941;SDS011;7043;51.630;7.254;2023-04-23T00:05:43;51.20;;;38.73;;
13941;SDS011;7043;51.630;7.254;2023-04-23T00:08:09;49.20;;;38.73;;
13941;SDS011;7043;51.630;7.254;2023-04-23T00:10:36;50.57;;;38.40;;
13941;SDS011;7043;51.630;7.254;2023-04-23T00:13:02;48.37;;;37.60;;
13941;SDS011;7043;51.630;7.254;2023-04-23T00:15:28;49.40;;;38.73;;
13941;SDS011;7043;51.630;7.254;2023-04-23T00:17:54;47.33;;;37.33;;
13941;SDS011;7043;51.630;7.254;2023-04-23T00:20:20;49.90;;;39.47;;
13941;SDS011;7043;51.630;7.254;2023-04-23T00:22:47;53.37;;;39.50;;
13941;SDS011;7043;51.630;7.254;2023-04-23T00:25:13;51.23;;;38.23;;
13941;SDS011;7043;51.630;7.254;2023-04-23T00:27:38;49.83;;;38.13;;
13941;SDS011;7043;51.630;7.254;2023-04-23T00:30:05;48.00;;;38.30;;
13941;SDS011;7043;51.630;7.254;2023-04-23T00:32:31;50.10;;;39.03;;
13941;SDS011;7043;51.630;7.254;2023-04-23T00:34:57;51.23;;;38.83;;
13941;SDS011;7043;51.630;7.254;2023-04-23T00:37:23;52.40;;;39.73;;
13941;SDS011;7043;51.630;7.254;2023-04-23T00:39:49;54.03;;;40.13;;
13941;SDS011;7043;51.630;7.254;2023-04-23T00:42:15;53.20;;;39.73;;
13941;SDS011;7043;51.630;7.254;2023-04-23T00:44:41;54.97;;;42.23;;
13941;SDS011;7043;51.630;7.254;2023-04-23T00:47:08;60.10;;;44.33;;
13941;SDS011;7043;51.630;7.254;2023-04-23T00:49:34;59.00;;;43.53;;
13941;SDS011;7043;51.630;7.254;2023-04-23T00:52:01;60.57;;;44.30;;
13941;SDS011;7043;51.630;7.254;2023-04-23T00:54:27;61.73;;;44.97;;
13941;SDS011;7043;51.630;7.254;2023-04-23T00:56:54;60.47;;;43.00;;
13941;SDS011;7043;51.630;7.254;2023-04-23T00:59:22;62.40;;;44.63;;
13941;SDS011;7043;51.630;7.254;2023-04-23T01:01:48;63.30;;;45.23;;
13941;SDS011;7043;51.630;7.254;2023-04-23T01:04:15;63.80;;;45.20;;
13941;SDS011;7043;51.630;7.254;2023-04-23T01:06:42;66.50;;;46.13;;
13941;SDS011;7043;51.630;7.254;2023-04-23T01:09:10;67.23;;;47.10;;
13941;SDS011;7043;51.630;7.254;2023-04-23T01:11:37;64.67;;;45.93;;
13941;SDS011;7043;51.630;7.254;2023-04-23T01:14:03;65.80;;;47.17;;
13941;SDS011;7043;51.630;7.254;2023-04-23T01:16:30;68.63;;;47.77;;
13941;SDS011;7043;51.630;7.254;2023-04-23T01:18:56;65.07;;;47.53;;
13941;SDS011;7043;51.630;7.254;2023-04-23T01:21:22;62.60;;;45.47;;
13941;SDS011;7043;51.630;7.254;2023-04-23T01:23:48;69.30;;;47.40;;
13941;SDS011;7043;51.630;7.254;2023-04-23T01:26:14;68.67;;;47.93;;
13941;SDS011;7043;51.630;7.254;2023-04-23T01:28:43;69.10;;;49.27;;
13941;SDS011;7043;51.630;7.254;2023-04-23T01:31:09;64.93;;;47.23;;
13941;SDS011;7043;51.630;7.254;2023-04-23T01:33:38;68.37;;;48.10;;
13941;SDS011;7043;51.630;7.254;2023-04-23T01:36:04;65.57;;;47.77;;
13941;SDS011;7043;51.630;7.254;2023-04-23T01:38:30;68.27;;;48.80;;
13941;SDS011;7043;51.630;7.254;2023-04-23T01:40:57;69.00;;;47.97;;
13941;SDS011;7043;51.630;7.254;2023-04-23T01:43:24;68.60;;;48.90;;
13941;SDS011;7043;51.630;7.254;2023-04-23T01:45:50;66.53;;;47.53;;
13941;SDS011;7043;51.630;7.254;2023-04-23T01:48:17;66.53;;;47.70;;
13941;SDS011;7043;51.630;7.254;2023-04-23T01:50:43;67.97;;;49.10;;
13941;SDS011;7043;51.630;7.254;2023-04-23T01:53:09;67.00;;;48.60;;
13941;SDS011;7043;51.630;7.254;2023-04-23T01:55:38;70.57;;;50.53;;
13941;SDS011;7043;51.630;7.254;2023-04-23T01:58:05;71.53;;;49.93;;
13941;SDS011;7043;51.630;7.254;2023-04-23T02:00:31;71.07;;;50.77;;
13941;SDS011;7043;51.630;7.254;2023-04-23T02:02:57;70.17;;;50.77;;
13941;SDS011;7043;51.630;7.254;2023-04-23T02:05:23;72.73;;;51.50;;
13941;SDS011;7043;51.630;7.254;2023-04-23T02:07:50;69.60;;;48.27;;
13941;SDS011;7043;51.630;7.254;2023-04-23T02:10:16;69.40;;;49.57;;
13941;SDS011;7043;51.630;7.254;2023-04-23T02:12:43;72.13;;;51.60;;
13941;SDS011;7043;51.630;7.254;2023-04-23T02:15:09;68.30;;;49.23;;
13941;SDS011;7043;51.630;7.254;2023-04-23T02:17:35;71.23;;;50.50;;
13941;SDS011;7043;51.630;7.254;2023-04-23T02:20:04;67.87;;;49.07;;
13941;SDS011;7043;51.630;7.254;2023-04-23T02:22:30;66.57;;;48.17;;
13941;SDS011;7043;51.630;7.254;2023-04-23T02:24:56;66.60;;;48.30;;
13941;SDS011;7043;51.630;7.254;2023-04-23T02:27:23;63.47;;;46.93;;
13941;SDS011;7043;51.630;7.254;2023-04-23T02:29:50;63.07;;;46.90;;
13941;SDS011;7043;51.630;7.254;2023-04-23T02:32:17;65.43;;;48.07;;
13941;SDS011;7043;51.630;7.254;2023-04-23T02:34:44;63.77;;;46.70;;
13941;SDS011;7043;51.630;7.254;2023-04-23T02:37:10;67.57;;;47.20;;
13941;SDS011;7043;51.630;7.254;2023-04-23T02:39:36;68.63;;;48.77;;
13941;SDS011;7043;51.630;7.254;2023-04-23T02:42:05;73.20;;;50.63;;
13941;SDS011;7043;51.630;7.254;2023-04-23T02:44:31;70.43;;;48.63;;
13941;SDS011;7043;51.630;7.254;2023-04-23T02:46:57;70.40;;;49.97;;
13941;SDS011;7043;51.630;7.254;2023-04-23T02:49:23;76.20;;;51.40;;
13941;SDS011;7043;51.630;7.254;2023-04-23T02:51:50;68.77;;;48.03;;
13941;SDS011;7043;51.630;7.254;2023-04-23T02:54:16;70.50;;;48.50;;
13941;SDS011;7043;51.630;7.254;2023-04-23T02:56:42;65.63;;;47.23;;
13941;SDS011;7043;51.630;7.254;2023-04-23T02:59:08;68.27;;;48.53;;
13941;SDS011;7043;51.630;7.254;2023-04-23T03:01:34;71.03;;;49.47;;
13941;SDS011;7043;51.630;7.254;2023-04-23T03:04:00;69.00;;;48.27;;
13941;SDS011;7043;51.630;7.254;2023-04-23T03:06:27;73.40;;;50.10;;
13941;SDS011;7043;51.630;7.254;2023-04-23T03:08:53;73.77;;;49.67;;
13941;SDS011;7043;51.630;7.254;2023-04-23T03:11:20;73.43;;;49.87;;
13941;SDS011;7043;51.630;7.254;2023-04-23T03:13:46;69.57;;;48.60;;
13941;SDS011;7043;51.630;7.254;2023-04-23T03:16:12;71.13;;;49.53;;
13941;SDS011;7043;51.630;7.254;2023-04-23T03:18:38;69.33;;;47.37;;
13941;SDS011;7043;51.630;7.254;2023-04-23T03:21:04;69.33;;;47.37;;
13941;SDS011;7043;51.630;7.254;2023-04-23T03:23:30;64.40;;;45.93;;
13941;SDS011;7043;51.630;7.254;2023-04-23T03:25:57;75.00;;;49.83;;
13941;SDS011;7043;51.630;7.254;2023-04-23T03:28:22;66.40;;;46.97;;
13941;SDS011;7043;51.630;7.254;2023-04-23T03:30:49;65.80;;;46.47;;
13941;SDS011;7043;51.630;7.254;2023-04-23T03:33:15;66.20;;;46.10;;
13941;SDS011;7043;51.630;7.254;2023-04-23T03:35:41;60.03;;;43.93;;
13941;SDS011;7043;51.630;7.254;2023-04-23T03:38:07;63.87;;;45.63;;
13941;SDS011;7043;51.630;7.254;2023-04-23T03:40:33;65.47;;;45.57;;
13941;SDS011;7043;51.630;7.254;2023-04-23T03:42:59;66.00;;;46.17;;
13941;SDS011;7043;51.630;7.254;2023-04-23T03:45:25;63.03;;;44.03;;
13941;SDS011;7043;51.630;7.254;2023-04-23T03:47:51;63.23;;;43.03;;
13941;SDS011;7043;51.630;7.254;2023-04-23T03:50:17;62.00;;;44.23;;
13941;SDS011;7043;51.630;7.254;2023-04-23T03:52:43;60.03;;;43.00;;
13941;SDS011;7043;51.630;7.254;2023-04-23T03:55:09;58.97;;;42.60;;
13941;SDS011;7043;51.630;7.254;2023-04-23T03:57:36;55.93;;;42.57;;
13941;SDS011;7043;51.630;7.254;2023-04-23T04:00:02;58.90;;;44.23;;
13941;SDS011;7043;51.630;7.254;2023-04-23T04:02:28;56.07;;;42.17;;
13941;SDS011;7043;51.630;7.254;2023-04-23T04:04:55;54.67;;;41.03;;
13941;SDS011;7043;51.630;7.254;2023-04-23T04:07:20;58.03;;;41.57;;
13941;SDS011;7043;51.630;7.254;2023-04-23T04:09:46;54.53;;;40.80;;
13941;SDS011;7043;51.630;7.254;2023-04-23T04:12:13;55.40;;;40.97;;
13941;SDS011;7043;51.630;7.254;2023-04-23T04:14:40;54.27;;;41.23;;
13941;SDS011;7043;51.630;7.254;2023-04-23T04:17:07;51.53;;;39.60;;
13941;SDS011;7043;51.630;7.254;2023-04-23T04:19:33;50.37;;;39.73;;
13941;SDS011;7043;51.630;7.254;2023-04-23T04:21:59;53.93;;;40.83;;
13941;SDS011;7043;51.630;7.254;2023-04-23T04:24:27;55.07;;;41.27;;
13941;SDS011;7043;51.630;7.254;2023-04-23T04:26:56;54.70;;;39.53;;
13941;SDS011;7043;51.630;7.254;2023-04-23T04:29:23;57.13;;;41.70;;
13941;SDS011;7043;51.630;7.254;2023-04-23T04:31:50;58.53;;;43.07;;
13941;SDS011;7043;51.630;7.254;2023-04-23T04:34:16;57.90;;;41.60;;
13941;SDS011;7043;51.630;7.254;2023-04-23T04:36:42;59.93;;;41.80;;
13941;SDS011;7043;51.630;7.254;2023-04-23T04:39:08;62.77;;;44.73;;
13941;SDS011;7043;51.630;7.254;2023-04-23T04:41:37;61.60;;;42.73;;
13941;SDS011;7043;51.630;7.254;2023-04-23T04:44:04;59.03;;;41.83;;
13941;SDS011;7043;51.630;7.254;2023-04-23T04:46:31;59.90;;;44.03;;
13941;SDS011;7043;51.630;7.254;2023-04-23T04:48:57;57.00;;;41.73;;
13941;SDS011;7043;51.630;7.254;2023-04-23T04:51:23;51.83;;;39.93;;
13941;SDS011;7043;51.630;7.254;2023-04-23T04:53:51;58.53;;;42.53;;
13941;SDS011;7043;51.630;7.254;2023-04-23T04:56:17;59.23;;;42.60;;
13941;SDS011;7043;51.630;7.254;2023-04-23T04:58:43;58.43;;;42.67;;
13941;SDS011;7043;51.630;7.254;2023-04-23T05:01:09;54.83;;;41.60;;
13941;SDS011;7043;51.630;7.254;2023-04-23T05:03:37;53.10;;;40.20;;
13941;SDS011;7043;51.630;7.254;2023-04-23T05:06:03;55.70;;;41.00;;
13941;SDS011;7043;51.630;7.254;2023-04-23T05:08:29;55.00;;;42.03;;
13941;SDS011;7043;51.630;7.254;2023-04-23T05:10:55;57.17;;;43.03;;
13941;SDS011;7043;51.630;7.254;2023-04-23T05:13:21;54.80;;;43.07;;
13941;SDS011;7043;51.630;7.254;2023-04-23T05:15:47;53.73;;;39.93;;
13941;SDS011;7043;51.630;7.254;2023-04-23T05:18:13;53.77;;;40.97;;
13941;SDS011;7043;51.630;7.254;2023-04-23T05:20:39;50.73;;;40.37;;
13941;SDS011;7043;51.630;7.254;2023-04-23T05:23:06;50.17;;;38.57;;
13941;SDS011;7043;51.630;7.254;2023-04-23T05:25:32;47.80;;;37.40;;
13941;SDS011;7043;51.630;7.254;2023-04-23T05:27:59;47.73;;;37.73;;
13941;SDS011;7043;51.630;7.254;2023-04-23T05:30:25;44.70;;;37.00;;
13941;SDS011;7043;51.630;7.254;2023-04-23T05:32:51;42.37;;;34.90;;
13941;SDS011;7043;51.630;7.254;2023-04-23T05:35:17;39.67;;;33.77;;
13941;SDS011;7043;51.630;7.254;2023-04-23T05:37:44;41.43;;;33.17;;
13941;SDS011;7043;51.630;7.254;2023-04-23T05:40:10;36.77;;;31.60;;
13941;SDS011;7043;51.630;7.254;2023-04-23T05:42:36;36.40;;;31.43;;
13941;SDS011;7043;51.630;7.254;2023-04-23T05:45:02;32.20;;;28.70;;
13941;SDS011;7043;51.630;7.254;2023-04-23T05:47:28;32.73;;;29.23;;
13941;SDS011;7043;51.630;7.254;2023-04-23T05:49:55;34.07;;;28.90;;
13941;SDS011;7043;51.630;7.254;2023-04-23T05:52:24;31.90;;;28.47;;
13941;SDS011;7043;51.630;7.254;2023-04-23T05:54:50;31.23;;;27.83;;
13941;SDS011;7043;51.630;7.254;2023-04-23T05:57:16;32.60;;;29.00;;
13941;SDS011;7043;51.630;7.254;2023-04-23T05:59:42;31.00;;;27.73;;
13941;SDS011;7043;51.630;7.254;2023-04-23T06:02:08;31.30;;;27.73;;
13941;SDS011;7043;51.630;7.254;2023-04-23T06:04:35;29.57;;;26.57;;
13941;SDS011;7043;51.630;7.254;2023-04-23T06:07:01;28.70;;;25.47;;
13941;SDS011;7043;51.630;7.254;2023-04-23T06:09:27;26.77;;;24.07;;
13941;SDS011;7043;51.630;7.254;2023-04-23T06:11:53;28.10;;;25.17;;
13941;SDS011;7043;51.630;7.254;2023-04-23T06:14:19;26.80;;;24.07;;
13941;SDS011;7043;51.630;7.254;2023-04-23T06:16:45;24.73;;;22.17;;
13941;SDS011;7043;51.630;7.254;2023-04-23T06:19:11;26.13;;;23.50;;
13941;SDS011;7043;51.630;7.254;2023-04-23T06:21:37;26.63;;;23.77;;
13941;SDS011;7043;51.630;7.254;2023-04-23T06:24:04;25.50;;;22.90;;
13941;SDS011;7043;51.630;7.254;2023-04-23T06:26:31;24.80;;;22.20;;
13941;SDS011;7043;51.630;7.254;2023-04-23T06:28:57;23.47;;;21.03;;
13941;SDS011;7043;51.630;7.254;2023-04-23T06:31:23;23.63;;;21.13;;
13941;SDS011;7043;51.630;7.254;2023-04-23T06:33:49;22.50;;;20.37;;
13941;SDS011;7043;51.630;7.254;2023-04-23T06:36:15;21.13;;;19.03;;
13941;SDS011;7043;51.630;7.254;2023-04-23T06:38:41;20.73;;;18.73;;
13941;SDS011;7043;51.630;7.254;2023-04-23T06:41:08;19.67;;;17.77;;
13941;SDS011;7043;51.630;7.254;2023-04-23T06:43:34;20.07;;;18.07;;
13941;SDS011;7043;51.630;7.254;2023-04-23T06:46:00;19.20;;;17.30;;
13941;SDS011;7043;51.630;7.254;2023-04-23T06:48:26;18.30;;;16.40;;
13941;SDS011;7043;51.630;7.254;2023-04-23T06:50:52;16.60;;;15.00;;
13941;SDS011;7043;51.630;7.254;2023-04-23T06:53:18;17.07;;;15.40;;
13941;SDS011;7043;51.630;7.254;2023-04-23T06:55:44;15.23;;;13.83;;
13941;SDS011;7043;51.630;7.254;2023-04-23T06:58:10;15.50;;;13.93;;
13941;SDS011;7043;51.630;7.254;2023-04-23T07:00:36;15.30;;;13.90;;
13941;SDS011;7043;51.630;7.254;2023-04-23T07:03:02;15.67;;;14.10;;
13941;SDS011;7043;51.630;7.254;2023-04-23T07:05:28;15.73;;;14.13;;
13941;SDS011;7043;51.630;7.254;2023-04-23T07:07:54;15.27;;;13.77;;
13941;SDS011;7043;51.630;7.254;2023-04-23T07:10:20;16.20;;;14.33;;
13941;SDS011;7043;51.630;7.254;2023-04-23T07:12:46;14.97;;;13.47;;
13941;SDS011;7043;51.630;7.254;2023-04-23T07:15:12;14.97;;;13.60;;
13941;SDS011;7043;51.630;7.254;2023-04-23T07:17:38;15.17;;;13.70;;
13941;SDS011;7043;51.630;7.254;2023-04-23T07:20:05;14.80;;;13.40;;
13941;SDS011;7043;51.630;7.254;2023-04-23T07:22:32;16.00;;;14.57;;
13941;SDS011;7043;51.630;7.254;2023-04-23T07:24:58;15.70;;;14.13;;
13941;SDS011;7043;51.630;7.254;2023-04-23T07:27:24;15.03;;;13.73;;
13941;SDS011;7043;51.630;7.254;2023-04-23T07:29:50;16.00;;;13.93;;
13941;SDS011;7043;51.630;7.254;2023-04-23T07:32:16;14.50;;;13.10;;
13941;SDS011;7043;51.630;7.254;2023-04-23T07:34:42;15.40;;;13.80;;
13941;SDS011;7043;51.630;7.254;2023-04-23T07:37:08;15.40;;;13.73;;
13941;SDS011;7043;51.630;7.254;2023-04-23T07:39:34;14.57;;;13.10;;
13941;SDS011;7043;51.630;7.254;2023-04-23T07:42:00;13.67;;;12.37;;
13941;SDS011;7043;51.630;7.254;2023-04-23T07:44:26;12.87;;;11.67;;
13941;SDS011;7043;51.630;7.254;2023-04-23T07:46:52;12.10;;;10.90;;
13941;SDS011;7043;51.630;7.254;2023-04-23T07:49:18;11.67;;;10.53;;
13941;SDS011;7043;51.630;7.254;2023-04-23T07:51:44;11.93;;;10.83;;
13941;SDS011;7043;51.630;7.254;2023-04-23T07:54:10;11.10;;;10.00;;
13941;SDS011;7043;51.630;7.254;2023-04-23T07:56:36;12.70;;;11.50;;
13941;SDS011;7043;51.630;7.254;2023-04-23T07:59:02;12.10;;;10.90;;
13941;SDS011;7043;51.630;7.254;2023-04-23T08:01:31;10.40;;;9.40;;
13941;SDS011;7043;51.630;7.254;2023-04-23T08:03:57;10.30;;;9.23;;
13941;SDS011;7043;51.630;7.254;2023-04-23T08:06:24;9.80;;;8.83;;
13941;SDS011;7043;51.630;7.254;2023-04-23T08:08:51;9.70;;;8.73;;
13941;SDS011;7043;51.630;7.254;2023-04-23T08:11:17;8.70;;;7.80;;
13941;SDS011;7043;51.630;7.254;2023-04-23T08:13:43;8.70;;;7.90;;
13941;SDS011;7043;51.630;7.254;2023-04-23T08:16:09;8.90;;;8.00;;
13941;SDS011;7043;51.630;7.254;2023-04-23T08:18:35;8.03;;;7.23;;
13941;SDS011;7043;51.630;7.254;2023-04-23T08:21:01;8.50;;;7.30;;
13941;SDS011;7043;51.630;7.254;2023-04-23T08:23:27;7.83;;;7.13;;
13941;SDS011;7043;51.630;7.254;2023-04-23T08:25:53;8.63;;;6.97;;
13941;SDS011;7043;51.630;7.254;2023-04-23T08:28:19;7.00;;;5.77;;
13941;SDS011;7043;51.630;7.254;2023-04-23T08:30:45;8.47;;;6.63;;
13941;SDS011;7043;51.630;7.254;2023-04-23T08:33:11;8.87;;;6.87;;
13941;SDS011;7043;51.630;7.254;2023-04-23T08:35:37;8.00;;;6.73;;
13941;SDS011;7043;51.630;7.254;2023-04-23T08:38:03;6.83;;;6.13;;
13941;SDS011;7043;51.630;7.254;2023-04-23T08:40:30;8.13;;;6.60;;
13941;SDS011;7043;51.630;7.254;2023-04-23T08:42:57;8.00;;;7.20;;
13941;SDS011;7043;51.630;7.254;2023-04-23T08:45:23;7.50;;;6.47;;
13941;SDS011;7043;51.630;7.254;2023-04-23T08:47:50;8.27;;;7.27;;
13941;SDS011;7043;51.630;7.254;2023-04-23T08:50:17;7.43;;;6.63;;
13941;SDS011;7043;51.630;7.254;2023-04-23T08:52:53;7.00;;;6.20;;
13941;SDS011;7043;51.630;7.254;2023-04-23T08:55:20;8.43;;;6.00;;
13941;SDS011;7043;51.630;7.254;2023-04-23T08:57:46;6.77;;;6.07;;
13941;SDS011;7043;51.630;7.254;2023-04-23T09:00:14;7.20;;;6.50;;
13941;SDS011;7043;51.630;7.254;2023-04-23T09:02:41;6.40;;;5.47;;
13941;SDS011;7043;51.630;7.254;2023-04-23T09:05:07;9.17;;;8.00;;
13941;SDS011;7043;51.630;7.254;2023-04-23T09:07:33;5.60;;;4.93;;
13941;SDS011;7043;51.630;7.254;2023-04-23T09:10:04;10.30;;;6.10;;
13941;SDS011;7043;51.630;7.254;2023-04-23T09:12:30;7.53;;;6.78;;
13941;SDS011;7043;51.630;7.254;2023-04-23T09:14:57;4.80;;;4.30;;
13941;SDS011;7043;51.630;7.254;2023-04-23T09:17:24;5.97;;;4.57;;
13941;SDS011;7043;51.630;7.254;2023-04-23T09:19:52;5.78;;;4.78;;
13941;SDS011;7043;51.630;7.254;2023-04-23T09:25:09;6.80;;;4.60;;
13941;SDS011;7043;51.630;7.254;2023-04-23T09:27:35;6.07;;;4.50;;
13941;SDS011;7043;51.630;7.254;2023-04-23T09:30:02;5.75;;;5.18;;
13941;SDS011;7043;51.630;7.254;2023-04-23T09:32:31;10.60;;;6.40;;
13941;SDS011;7043;51.630;7.254;2023-04-23T09:34:57;6.55;;;4.38;;
13941;SDS011;7043;51.630;7.254;2023-04-23T09:37:26;4.57;;;3.65;;
13941;SDS011;7043;51.630;7.254;2023-04-23T09:39:53;6.75;;;3.50;;
13941;SDS011;7043;51.630;7.254;2023-04-23T09:42:22;4.55;;;3.00;;
13941;SDS011;7043;51.630;7.254;2023-04-23T09:45:04;4.40;;;2.67;;
13941;SDS011;7043;51.630;7.254;2023-04-23T09:47:34;4.10;;;2.83;;
13941;SDS011;7043;51.630;7.254;2023-04-23T09:50:02;4.43;;;2.80;;
13941;SDS011;7043;51.630;7.254;2023-04-23T09:52:32;5.13;;;3.10;;
13941;SDS011;7043;51.630;7.254;2023-04-23T09:55:01;5.17;;;3.17;;
13941;SDS011;7043;51.630;7.254;2023-04-23T09:57:29;5.30;;;3.17;;
13941;SDS011;7043;51.630;7.254;2023-04-23T09:59:55;4.10;;;3.00;;
13941;SDS011;7043;51.630;7.254;2023-04-23T10:02:26;4.17;;;3.20;;
13941;SDS011;7043;51.630;7.254;2023-04-23T10:04:57;3.70;;;2.90;;
13941;SDS011;7043;51.630;7.254;2023-04-23T10:07:23;6.40;;;3.20;;
13941;SDS011;7043;51.630;7.254;2023-04-23T10:09:49;5.95;;;3.30;;
13941;SDS011;7043;51.630;7.254;2023-04-23T10:12:15;5.05;;;3.20;;
13941;SDS011;7043;51.630;7.254;2023-04-23T10:14:42;5.45;;;2.58;;
13941;SDS011;7043;51.630;7.254;2023-04-23T10:17:09;3.58;;;2.25;;
13941;SDS011;7043;51.630;7.254;2023-04-23T10:19:35;6.20;;;2.92;;
13941;SDS011;7043;51.630;7.254;2023-04-23T10:22:04;5.50;;;3.50;;
13941;SDS011;7043;51.630;7.254;2023-04-23T10:24:39;6.00;;;3.60;;
13941;SDS011;7043;51.630;7.254;2023-04-23T10:27:07;3.05;;;2.55;;
13941;SDS011;7043;51.630;7.254;2023-04-23T10:29:35;5.13;;;3.90;;
13941;SDS011;7043;51.630;7.254;2023-04-23T10:32:02;5.20;;;3.20;;
13941;SDS011;7043;51.630;7.254;2023-04-23T10:34:29;4.05;;;2.88;;
13941;SDS011;7043;51.630;7.254;2023-04-23T10:36:56;4.70;;;2.83;;
13941;SDS011;7043;51.630;7.254;2023-04-23T10:39:24;5.50;;;3.40;;
13941;SDS011;7043;51.630;7.254;2023-04-23T10:41:50;4.43;;;3.00;;
13941;SDS011;7043;51.630;7.254;2023-04-23T10:44:18;3.65;;;3.25;;
13941;SDS011;7043;51.630;7.254;2023-04-23T10:46:52;5.90;;;4.05;;
13941;SDS011;7043;51.630;7.254;2023-04-23T10:49:21;3.42;;;3.00;;
13941;SDS011;7043;51.630;7.254;2023-04-23T10:51:47;5.07;;;3.00;;
13941;SDS011;7043;51.630;7.254;2023-04-23T10:54:14;4.50;;;2.67;;
13941;SDS011;7043;51.630;7.254;2023-04-23T10:56:40;4.30;;;2.92;;
13941;SDS011;7043;51.630;7.254;2023-04-23T10:59:27;3.85;;;2.95;;
13941;SDS011;7043;51.630;7.254;2023-04-23T11:01:55;3.83;;;3.03;;
13941;SDS011;7043;51.630;7.254;2023-04-23T11:04:26;4.80;;;3.35;;
13941;SDS011;7043;51.630;7.254;2023-04-23T11:06:53;4.28;;;2.92;;
13941;SDS011;7043;51.630;7.254;2023-04-23T11:09:26;3.47;;;2.72;;
13941;SDS011;7043;51.630;7.254;2023-04-23T11:11:56;4.55;;;2.40;;
13941;SDS011;7043;51.630;7.254;2023-04-23T11:14:34;2.40;;;2.20;;
13941;SDS011;7043;51.630;7.254;2023-04-23T11:17:01;3.55;;;2.53;;
13941;SDS011;7043;51.630;7.254;2023-04-23T11:19:27;4.55;;;2.70;;
13941;SDS011;7043;51.630;7.254;2023-04-23T11:24:22;3.97;;;2.30;;
13941;SDS011;7043;51.630;7.254;2023-04-23T11:26:50;4.22;;;2.45;;
13941;SDS011;7043;51.630;7.254;2023-04-23T11:29:20;5.40;;;2.35;;
13941;SDS011;7043;51.630;7.254;2023-04-23T11:31:50;2.60;;;2.28;;
13941;SDS011;7043;51.630;7.254;2023-04-23T11:34:16;7.15;;;2.63;;
13941;SDS011;7043;51.630;7.254;2023-04-23T11:36:42;6.47;;;2.45;;
13941;SDS011;7043;51.630;7.254;2023-04-23T11:39:09;3.95;;;2.30;;
13941;SDS011;7043;51.630;7.254;2023-04-23T11:41:36;2.88;;;2.20;;
13941;SDS011;7043;51.630;7.254;2023-04-23T11:44:02;3.25;;;2.60;;
13941;SDS011;7043;51.630;7.254;2023-04-23T11:46:28;3.42;;;2.42;;
13941;SDS011;7043;51.630;7.254;2023-04-23T11:48:55;2.40;;;2.20;;
13941;SDS011;7043;51.630;7.254;2023-04-23T11:51:24;2.97;;;2.58;;
13941;SDS011;7043;51.630;7.254;2023-04-23T11:53:50;5.43;;;2.58;;
13941;SDS011;7043;51.630;7.254;2023-04-23T11:56:16;5.25;;;3.03;;
13941;SDS011;7043;51.630;7.254;2023-04-23T11:58:44;4.75;;;3.22;;
13941;SDS011;7043;51.630;7.254;2023-04-23T12:01:10;4.47;;;2.90;;
13941;SDS011;7043;51.630;7.254;2023-04-23T12:03:39;3.10;;;2.20;;
13941;SDS011;7043;51.630;7.254;2023-04-23T12:06:05;2.57;;;1.87;;
13941;SDS011;7043;51.630;7.254;2023-04-23T12:08:32;2.90;;;1.90;;
13941;SDS011;7043;51.630;7.254;2023-04-23T12:11:04;4.17;;;2.20;;
13941;SDS011;7043;51.630;7.254;2023-04-23T12:13:31;2.60;;;2.07;;
13941;SDS011;7043;51.630;7.254;2023-04-23T12:18:27;4.83;;;2.10;;
13941;SDS011;7043;51.630;7.254;2023-04-23T12:20:53;4.80;;;2.20;;
13941;SDS011;7043;51.630;7.254;2023-04-23T12:23:26;3.80;;;2.50;;
13941;SDS011;7043;51.630;7.254;2023-04-23T12:25:55;2.80;;;2.23;;
13941;SDS011;7043;51.630;7.254;2023-04-23T12:28:22;4.27;;;2.50;;
13941;SDS011;7043;51.630;7.254;2023-04-23T12:30:48;2.87;;;2.10;;
13941;SDS011;7043;51.630;7.254;2023-04-23T12:33:14;3.07;;;2.30;;
13941;SDS011;7043;51.630;7.254;2023-04-23T12:35:44;2.37;;;2.17;;
13941;SDS011;7043;51.630;7.254;2023-04-23T12:40:47;3.77;;;2.60;;
13941;SDS011;7043;51.630;7.254;2023-04-23T12:43:13;5.00;;;2.37;;
13941;SDS011;7043;51.630;7.254;2023-04-23T12:45:39;3.17;;;2.43;;
13941;SDS011;7043;51.630;7.254;2023-04-23T12:48:05;5.57;;;2.60;;
13941;SDS011;7043;51.630;7.254;2023-04-23T12:50:31;3.27;;;1.97;;
13941;SDS011;7043;51.630;7.254;2023-04-23T12:52:57;2.50;;;2.27;;
13941;SDS011;7043;51.630;7.254;2023-04-23T12:55:23;3.73;;;2.33;;
13941;SDS011;7043;51.630;7.254;2023-04-23T12:57:49;3.07;;;2.23;;
13941;SDS011;7043;51.630;7.254;2023-04-23T13:00:15;5.27;;;2.67;;
13941;SDS011;7043;51.630;7.254;2023-04-23T13:02:41;5.25;;;3.42;;
13941;SDS011;7043;51.630;7.254;2023-04-23T13:05:07;5.55;;;2.83;;
13941;SDS011;7043;51.630;7.254;2023-04-23T13:07:33;4.28;;;2.15;;
13941;SDS011;7043;51.630;7.254;2023-04-23T13:09:59;3.78;;;2.80;;
13941;SDS011;7043;51.630;7.254;2023-04-23T13:12:25;4.00;;;2.60;;
13941;SDS011;7043;51.630;7.254;2023-04-23T13:14:52;4.88;;;2.50;;
13941;SDS011;7043;51.630;7.254;2023-04-23T13:17:17;3.15;;;2.17;;
13941;SDS011;7043;51.630;7.254;2023-04-23T13:19:44;4.13;;;2.30;;
13941;SDS011;7043;51.630;7.254;2023-04-23T13:22:10;2.65;;;2.10;;
13941;SDS011;7043;51.630;7.254;2023-04-23T13:24:36;4.53;;;2.10;;
13941;SDS011;7043;51.630;7.254;2023-04-23T13:27:02;4.40;;;2.40;;
13941;SDS011;7043;51.630;7.254;2023-04-23T13:29:28;6.18;;;3.33;;
13941;SDS011;7043;51.630;7.254;2023-04-23T13:31:54;3.15;;;2.58;;
13941;SDS011;7043;51.630;7.254;2023-04-23T13:34:20;5.30;;;3.63;;
13941;SDS011;7043;51.630;7.254;2023-04-23T13:36:47;6.38;;;2.58;;
13941;SDS011;7043;51.630;7.254;2023-04-23T13:39:13;5.32;;;2.60;;
13941;SDS011;7043;51.630;7.254;2023-04-23T13:41:39;2.40;;;2.05;;
13941;SDS011;7043;51.630;7.254;2023-04-23T13:44:05;2.95;;;1.70;;
13941;SDS011;7043;51.630;7.254;2023-04-23T13:46:31;6.43;;;2.65;;
13941;SDS011;7043;51.630;7.254;2023-04-23T13:48:57;5.50;;;3.05;;
13941;SDS011;7043;51.630;7.254;2023-04-23T13:51:25;2.55;;;2.30;;
13941;SDS011;7043;51.630;7.254;2023-04-23T13:53:51;3.70;;;2.92;;
13941;SDS011;7043;51.630;7.254;2023-04-23T13:56:17;3.97;;;1.90;;
13941;SDS011;7043;51.630;7.254;2023-04-23T13:58:43;3.47;;;1.88;;
13941;SDS011;7043;51.630;7.254;2023-04-23T14:01:11;2.85;;;2.10;;
13941;SDS011;7043;51.630;7.254;2023-04-23T14:03:39;3.40;;;1.63;;
13941;SDS011;7043;51.630;7.254;2023-04-23T14:06:05;5.00;;;2.38;;
13941;SDS011;7043;51.630;7.254;2023-04-23T14:08:31;6.40;;;4.07;;
13941;SDS011;7043;51.630;7.254;2023-04-23T14:11:00;4.75;;;2.63;;
13941;SDS011;7043;51.630;7.254;2023-04-23T14:13:26;6.35;;;4.47;;
13941;SDS011;7043;51.630;7.254;2023-04-23T14:15:52;9.80;;;8.80;;
13941;SDS011;7043;51.630;7.254;2023-04-23T14:18:18;11.13;;;8.77;;
13941;SDS011;7043;51.630;7.254;2023-04-23T14:20:45;12.27;;;11.07;;
13941;SDS011;7043;51.630;7.254;2023-04-23T14:25:52;4.35;;;1.98;;
13941;SDS011;7043;51.630;7.254;2023-04-23T14:28:23;3.35;;;1.67;;
13941;SDS011;7043;51.630;7.254;2023-04-23T14:30:55;6.07;;;2.92;;
13941;SDS011;7043;51.630;7.254;2023-04-23T14:33:21;5.20;;;2.50;;
13941;SDS011;7043;51.630;7.254;2023-04-23T14:35:47;2.63;;;1.58;;
13941;SDS011;7043;51.630;7.254;2023-04-23T14:38:13;4.32;;;2.05;;
13941;SDS011;7043;51.630;7.254;2023-04-23T14:40:40;3.55;;;1.60;;
13941;SDS011;7043;51.630;7.254;2023-04-23T14:43:06;1.58;;;1.10;;
13941;SDS011;7043;51.630;7.254;2023-04-23T14:45:32;5.22;;;2.20;;
13941;SDS011;7043;51.630;7.254;2023-04-23T14:47:58;3.60;;;1.88;;
13941;SDS011;7043;51.630;7.254;2023-04-23T14:50:24;4.88;;;3.35;;
13941;SDS011;7043;51.630;7.254;2023-04-23T14:52:52;3.63;;;2.40;;
13941;SDS011;7043;51.630;7.254;2023-04-23T14:55:19;3.30;;;1.40;;